Time;durP1;ratioP1;P1;durP2;ratioP2;P2;SDS_P1;SDS_P2;PMS_P1;PMS_P2;Temp;Humidity;BMP_temperature;BMP_pressure;BME280_temperature;BME280_humidity;BME280_pressure;Samples;Min_cycle;Max_cycle;Signal;HPM_P1;HPM_P2
2021/09/19 00:00:21;;;;;;;10.80;9.80;;;19.60;58.30;;;;;;5004208;28;20460;-47
2021/09/19 00:02:47;;;;;;;11.43;10.33;;;19.60;58.20;;;;;;4994177;28;20452;-47
2021/09/19 00:05:13;;;;;;;10.53;9.53;;;19.60;58.00;;;;;;4993761;28;20273;-46
2021/09/19 00:07:39;;;;;;;11.90;10.70;;;19.60;57.90;;;;;;5004031;28;20654;-47
2021/09/19 00:10:07;;;;;;;11.33;10.33;;;19.50;57.80;;;;;;4992980;28;20435;-48
2021/09/19 00:12:32;;;;;;;12.67;11.50;;;19.50;57.90;;;;;;4993185;28;20199;-47
2021/09/19 00:14:58;;;;;;;11.97;10.97;;;19.40;57.80;;;;;;4993514;28;20830;-46
2021/09/19 00:17:24;;;;;;;12.33;11.13;;;19.40;57.90;;;;;;4992555;28;20218;-48
2021/09/19 00:19:50;;;;;;;13.60;12.30;;;19.40;58.10;;;;;;4993137;28;20641;-48
2021/09/19 00:22:16;;;;;;;12.10;11.00;;;19.30;58.70;;;;;;4992956;28;20485;-47
2021/09/19 00:24:41;;;;;;;11.90;10.70;;;19.30;58.40;;;;;;4992848;28;20426;-48
2021/09/19 00:27:07;;;;;;;11.90;10.73;;;19.30;58.40;;;;;;4993240;28;20238;-50
2021/09/19 00:29:32;;;;;;;11.10;10.00;;;19.20;58.30;;;;;;4992914;28;20587;-47
2021/09/19 00:31:59;;;;;;;10.30;9.33;;;19.20;58.40;;;;;;4992939;28;20190;-50
2021/09/19 00:34:24;;;;;;;11.67;10.47;;;19.00;58.60;;;;;;4991554;28;20563;-46
2021/09/19 00:36:50;;;;;;;11.43;10.43;;;19.00;59.20;;;;;;4993411;28;20445;-51
2021/09/19 00:39:15;;;;;;;11.93;10.83;;;19.00;59.10;;;;;;4992567;28;20647;-51
2021/09/19 00:41:42;;;;;;;11.13;10.13;;;19.00;59.00;;;;;;4992615;28;20356;-48
2021/09/19 00:44:09;;;;;;;11.30;10.20;;;19.00;59.00;;;;;;4990942;28;20570;-51
2021/09/19 00:46:36;;;;;;;11.63;10.60;;;19.00;59.00;;;;;;4992806;28;20904;-50
2021/09/19 00:49:02;;;;;;;12.67;10.63;;;19.00;58.90;;;;;;4992493;28;20910;-49
2021/09/19 00:51:29;;;;;;;10.90;9.87;;;19.00;58.80;;;;;;5007807;28;20429;-51
2021/09/19 00:53:56;;;;;;;11.20;10.10;;;19.00;58.80;;;;;;5012066;28;20439;-51
2021/09/19 00:56:28;;;;;;;10.63;9.67;;;19.00;58.90;;;;;;5008729;28;20418;-51
2021/09/19 00:58:56;;;;;;;10.90;10.00;;;19.00;58.90;;;;;;4992177;28;20504;-49
2021/09/19 01:01:22;;;;;;;11.40;10.07;;;18.90;58.90;;;;;;5010755;28;20481;-52
2021/09/19 01:03:51;;;;;;;11.57;10.53;;;18.90;58.80;;;;;;5011704;28;20527;-50
2021/09/19 01:06:17;;;;;;;12.20;11.00;;;18.90;58.90;;;;;;5012005;28;20512;-47
2021/09/19 01:08:44;;;;;;;12.13;10.40;;;19.00;58.90;;;;;;4997558;28;20461;-53
2021/09/19 01:11:12;;;;;;;15.60;11.33;;;18.90;58.80;;;;;;4992394;28;20438;-47
2021/09/19 01:13:41;;;;;;;11.07;10.07;;;18.90;58.80;;;;;;4991852;28;21024;-50
2021/09/19 01:16:07;;;;;;;12.33;11.13;;;18.90;58.80;;;;;;4992685;28;20449;-50
2021/09/19 01:18:34;;;;;;;12.67;11.33;;;18.90;58.80;;;;;;4992114;28;20429;-48
2021/09/19 01:21:00;;;;;;;12.07;10.40;;;18.90;58.90;;;;;;4992123;28;20847;-52
2021/09/19 01:23:31;;;;;;;12.03;10.83;;;18.90;59.40;;;;;;4991871;28;20509;-51
2021/09/19 01:25:57;;;;;;;11.33;9.97;;;18.80;58.80;;;;;;4992726;28;20201;-46
2021/09/19 01:28:23;;;;;;;12.40;11.20;;;18.80;58.80;;;;;;4991831;28;20464;-46
2021/09/19 01:30:49;;;;;;;11.53;10.43;;;18.80;58.90;;;;;;4990822;28;21247;-48
2021/09/19 01:33:15;;;;;;;11.20;10.20;;;18.80;58.90;;;;;;4991654;28;20418;-46
2021/09/19 01:35:41;;;;;;;10.43;9.47;;;18.70;58.80;;;;;;4990868;28;20203;-46
2021/09/19 01:38:06;;;;;;;11.07;10.07;;;18.80;58.70;;;;;;4991780;28;20582;-47
2021/09/19 01:40:32;;;;;;;10.77;9.87;;;18.80;58.70;;;;;;4992020;28;20218;-49
2021/09/19 01:42:59;;;;;;;11.80;9.43;;;18.80;58.50;;;;;;4991846;28;20195;-47
2021/09/19 01:45:25;;;;;;;10.80;9.70;;;18.70;58.30;;;;;;4992407;28;20436;-45
2021/09/19 01:47:52;;;;;;;10.40;9.40;;;18.70;58.40;;;;;;4991467;28;20568;-46
2021/09/19 01:50:23;;;;;;;10.43;9.53;;;18.60;58.70;;;;;;4997804;28;21007;-47
2021/09/19 01:52:49;;;;;;;11.13;9.90;;;18.60;58.70;;;;;;5012011;28;20514;-48
2021/09/19 01:55:15;;;;;;;10.90;9.80;;;18.60;58.70;;;;;;5015833;28;20428;-46
2021/09/19 01:57:41;;;;;;;10.07;9.07;;;18.50;58.80;;;;;;5001185;28;20476;-50
2021/09/19 02:00:09;;;;;;;11.13;10.03;;;18.50;58.90;;;;;;5004297;28;20440;-46
2021/09/19 02:02:35;;;;;;;10.90;9.90;;;18.40;59.10;;;;;;5014046;28;20432;-49
2021/09/19 02:05:02;;;;;;;10.00;9.00;;;18.40;59.20;;;;;;5014924;28;20523;-46
2021/09/19 02:07:28;;;;;;;9.70;8.67;;;18.40;59.30;;;;;;5013481;28;20423;-46
2021/09/19 02:09:53;;;;;;;9.80;8.90;;;18.40;59.20;;;;;;4995312;28;20425;-47
2021/09/19 02:12:19;;;;;;;10.37;9.37;;;18.40;59.10;;;;;;4995428;28;20204;-47
2021/09/19 02:14:44;;;;;;;9.80;8.77;;;18.30;59.10;;;;;;4995129;28;20201;-46
2021/09/19 02:17:12;;;;;;;10.53;9.43;;;18.30;59.40;;;;;;4995628;28;20195;-47
2021/09/19 02:19:38;;;;;;;10.50;9.50;;;18.30;59.40;;;;;;4995262;28;20202;-48
2021/09/19 02:22:10;;;;;;;10.90;9.90;;;18.30;59.40;;;;;;4995444;28;20481;-48
2021/09/19 02:24:36;;;;;;;9.70;8.90;;;18.20;59.40;;;;;;4995185;28;20589;-47
2021/09/19 02:27:01;;;;;;;10.40;9.50;;;18.20;59.40;;;;;;4995672;28;20429;-47
2021/09/19 02:29:27;;;;;;;12.73;9.10;;;18.20;59.30;;;;;;4993994;28;20198;-46
2021/09/19 02:31:53;;;;;;;10.10;9.20;;;18.20;59.20;;;;;;4995217;28;20191;-48
2021/09/19 02:34:19;;;;;;;9.70;8.90;;;18.20;59.20;;;;;;4994979;28;20216;-46
2021/09/19 02:36:44;;;;;;;9.77;8.90;;;18.20;59.20;;;;;;4995400;28;20205;-46
2021/09/19 02:39:10;;;;;;;12.47;9.00;;;18.20;59.20;;;;;;4994906;28;20661;-46
2021/09/19 02:41:36;;;;;;;9.23;8.33;;;18.20;59.30;;;;;;4994892;28;20288;-50
2021/09/19 02:44:03;;;;;;;9.20;8.23;;;18.20;59.30;;;;;;4994985;28;20190;-46
2021/09/19 02:46:28;;;;;;;10.13;9.33;;;18.10;59.30;;;;;;4995439;28;20417;-46
2021/09/19 02:48:54;;;;;;;9.70;8.80;;;18.10;59.30;;;;;;4994949;28;20425;-46
2021/09/19 02:51:20;;;;;;;8.50;7.57;;;18.10;59.30;;;;;;5008748;28;20225;-46
2021/09/19 02:53:46;;;;;;;9.30;8.50;;;18.00;59.20;;;;;;5014322;28;20194;-46
2021/09/19 02:56:12;;;;;;;8.47;7.67;;;18.00;59.10;;;;;;5010564;28;20673;-48
2021/09/19 02:58:38;;;;;;;9.20;8.30;;;18.00;59.10;;;;;;4994431;28;20465;-46
2021/09/19 03:01:03;;;;;;;9.30;8.50;;;18.00;59.30;;;;;;5010523;28;20225;-47
2021/09/19 03:03:29;;;;;;;8.17;7.27;;;18.00;59.40;;;;;;5013575;28;20197;-47
2021/09/19 03:05:55;;;;;;;10.17;9.17;;;17.90;59.50;;;;;;5013908;28;20256;-46
2021/09/19 03:08:20;;;;;;;9.73;8.87;;;17.90;59.60;;;;;;5003466;28;20190;-47
2021/09/19 03:10:46;;;;;;;12.23;8.07;;;17.90;59.60;;;;;;5014115;28;20197;-46
2021/09/19 03:13:11;;;;;;;8.60;7.70;;;17.90;59.60;;;;;;5013732;28;20616;-45
2021/09/19 03:15:37;;;;;;;9.40;8.57;;;17.90;59.50;;;;;;5014261;28;20240;-47
2021/09/19 03:18:03;;;;;;;11.10;7.90;;;17.90;59.50;;;;;;5013766;28;20194;-46
2021/09/19 03:20:28;;;;;;;9.43;8.53;;;17.90;59.50;;;;;;5013819;28;20229;-46
2021/09/19 03:22:54;;;;;;;8.40;7.70;;;17.90;59.40;;;;;;5011783;28;20336;-47
2021/09/19 03:25:20;;;;;;;9.27;8.43;;;17.80;59.50;;;;;;5014340;28;20198;-46
2021/09/19 03:27:45;;;;;;;9.30;8.30;;;17.70;59.70;;;;;;5013849;28;20201;-49
2021/09/19 03:30:13;;;;;;;10.73;7.70;;;17.60;60.70;;;;;;5014097;28;20326;-48
2021/09/19 03:32:40;;;;;;;9.10;8.07;;;17.60;59.90;;;;;;5013540;28;20193;-46
2021/09/19 03:35:06;;;;;;;9.43;8.63;;;17.60;59.90;;;;;;5013272;28;20428;-46
2021/09/19 03:37:32;;;;;;;8.40;7.70;;;17.50;61.10;;;;;;5014024;28;20413;-47
2021/09/19 03:39:57;;;;;;;10.27;9.27;;;17.50;60.70;;;;;;5013325;28;20448;-48
2021/09/19 03:42:23;;;;;;;9.70;8.80;;;17.40;60.20;;;;;;5013361;28;20257;-47
2021/09/19 03:44:49;;;;;;;9.40;8.53;;;17.50;60.20;;;;;;5013257;28;20333;-48
2021/09/19 03:47:16;;;;;;;8.73;7.93;;;17.40;60.10;;;;;;5012979;28;20194;-46
2021/09/19 03:49:41;;;;;;;9.90;9.00;;;17.40;60.10;;;;;;5012494;28;20453;-47
2021/09/19 03:52:07;;;;;;;8.63;7.80;;;17.40;60.10;;;;;;5013101;28;20454;-47
2021/09/19 03:54:33;;;;;;;9.80;8.50;;;17.40;60.10;;;;;;5013080;28;20209;-46
2021/09/19 03:56:58;;;;;;;9.10;8.27;;;17.40;60.00;;;;;;5005675;28;20201;-46
2021/09/19 03:59:25;;;;;;;8.13;7.47;;;17.40;59.90;;;;;;4995838;28;20370;-46
2021/09/19 04:01:50;;;;;;;9.53;8.63;;;17.40;59.70;;;;;;5012661;28;20237;-47
2021/09/19 04:04:16;;;;;;;8.93;7.93;;;17.40;59.60;;;;;;5012696;28;20954;-47
2021/09/19 04:06:42;;;;;;;8.73;7.83;;;17.40;59.50;;;;;;5013284;28;20268;-47
2021/09/19 04:09:07;;;;;;;7.37;6.67;;;17.40;59.40;;;;;;4997334;28;20651;-46
2021/09/19 04:11:33;;;;;;;8.30;7.57;;;17.40;58.90;;;;;;4993175;28;20241;-46
2021/09/19 04:13:58;;;;;;;11.60;7.93;;;17.40;58.90;;;;;;4991552;28;20194;-46
2021/09/19 04:16:24;;;;;;;7.83;7.23;;;17.40;58.90;;;;;;4993476;28;20689;-46
2021/09/19 04:18:50;;;;;;;8.93;8.00;;;17.40;58.90;;;;;;4993095;28;20225;-46
2021/09/19 04:21:15;;;;;;;8.90;8.10;;;17.20;59.10;;;;;;4992920;28;20230;-46
2021/09/19 04:23:41;;;;;;;9.13;8.37;;;17.20;59.20;;;;;;4992931;28;20202;-46
2021/09/19 04:26:07;;;;;;;9.30;8.00;;;17.20;59.10;;;;;;4993417;28;20298;-47
2021/09/19 04:28:32;;;;;;;8.77;8.07;;;17.20;58.90;;;;;;4992714;28;20194;-46
2021/09/19 04:30:58;;;;;;;9.10;8.20;;;17.20;58.80;;;;;;4993188;28;20213;-46
2021/09/19 04:33:24;;;;;;;8.37;7.67;;;17.20;58.90;;;;;;4992639;28;20203;-46
2021/09/19 04:35:49;;;;;;;9.23;8.43;;;17.20;58.90;;;;;;4993200;28;20203;-46
2021/09/19 04:38:15;;;;;;;7.80;7.03;;;17.20;58.90;;;;;;4992373;28;20666;-46
2021/09/19 04:40:41;;;;;;;9.30;7.73;;;17.20;58.70;;;;;;4991143;28;20343;-46
2021/09/19 04:43:11;;;;;;;8.70;8.00;;;17.20;58.70;;;;;;4992540;28;20205;-47
2021/09/19 04:45:38;;;;;;;8.07;7.43;;;17.10;58.30;;;;;;4992987;28;20183;-47
2021/09/19 04:48:04;;;;;;;8.40;7.60;;;17.10;58.20;;;;;;4992569;28;20457;-47
2021/09/19 04:50:30;;;;;;;7.63;6.90;;;17.10;58.20;;;;;;4999784;28;20429;-48
2021/09/19 04:52:56;;;;;;;8.47;7.60;;;17.10;58.30;;;;;;5011939;28;20504;-48
2021/09/19 04:55:21;;;;;;;9.13;8.20;;;17.10;58.30;;;;;;5012470;28;20193;-46
2021/09/19 04:57:47;;;;;;;8.70;7.90;;;17.10;58.40;;;;;;4996013;28;20234;-47
2021/09/19 05:00:13;;;;;;;7.90;7.20;;;17.00;58.30;;;;;;5001535;28;20193;-47
2021/09/19 05:02:39;;;;;;;8.53;7.80;;;17.00;58.30;;;;;;5012521;28;20198;-46
2021/09/19 05:05:05;;;;;;;8.80;8.00;;;17.00;58.50;;;;;;5011852;28;20417;-46
2021/09/19 05:07:31;;;;;;;8.30;7.60;;;17.00;58.60;;;;;;5007822;28;20201;-46
2021/09/19 05:09:56;;;;;;;8.00;7.37;;;17.00;58.70;;;;;;4992247;28;20518;-47
2021/09/19 05:12:22;;;;;;;9.30;8.40;;;16.90;58.90;;;;;;4992281;28;20238;-46
2021/09/19 05:14:49;;;;;;;8.90;8.10;;;16.90;58.90;;;;;;4992179;28;20197;-48
2021/09/19 05:17:18;;;;;;;8.83;8.03;;;16.90;58.90;;;;;;4992348;28;20721;-47
2021/09/19 05:19:43;;;;;;;8.33;7.70;;;16.80;59.00;;;;;;4992174;28;20436;-48
2021/09/19 05:22:09;;;;;;;9.50;8.60;;;16.80;58.90;;;;;;4992165;28;20481;-47
2021/09/19 05:24:34;;;;;;;8.50;7.60;;;16.80;58.80;;;;;;4992079;28;20872;-46
2021/09/19 05:27:00;;;;;;;8.10;6.90;;;16.80;58.80;;;;;;4991839;28;20198;-49
2021/09/19 05:29:25;;;;;;;7.90;7.20;;;16.80;58.70;;;;;;4992037;28;20252;-47
2021/09/19 05:31:51;;;;;;;7.77;7.07;;;16.80;58.30;;;;;;4991929;28;20200;-47
2021/09/19 05:34:17;;;;;;;8.70;7.90;;;16.70;58.00;;;;;;4990286;28;20612;-46
2021/09/19 05:36:42;;;;;;;8.47;7.57;;;16.70;58.00;;;;;;4992261;28;20201;-48
2021/09/19 05:39:08;;;;;;;8.47;7.67;;;16.70;58.10;;;;;;4991461;28;20198;-47
2021/09/19 05:41:34;;;;;;;8.50;7.60;;;16.60;58.40;;;;;;4991794;28;20254;-48
2021/09/19 05:44:00;;;;;;;7.07;6.37;;;16.60;58.60;;;;;;4991660;28;20196;-48
2021/09/19 05:46:26;;;;;;;7.73;7.03;;;16.60;59.00;;;;;;4992394;28;20203;-47
2021/09/19 05:48:52;;;;;;;7.33;6.60;;;16.60;58.90;;;;;;4991377;28;20816;-46
2021/09/19 05:51:21;;;;;;;6.83;6.13;;;16.70;58.90;;;;;;5005526;28;20268;-47
2021/09/19 05:53:47;;;;;;;8.40;7.60;;;16.70;58.80;;;;;;5011396;28;20448;-48
2021/09/19 05:56:13;;;;;;;8.70;6.80;;;16.70;58.70;;;;;;5008852;28;20513;-50
2021/09/19 05:58:38;;;;;;;7.40;6.70;;;16.80;58.70;;;;;;4991348;28;21023;-47
2021/09/19 06:01:04;;;;;;;7.20;6.50;;;16.80;58.70;;;;;;5005916;28;20252;-47
2021/09/19 06:03:29;;;;;;;8.43;7.53;;;16.90;58.90;;;;;;5011313;28;20660;-49
2021/09/19 06:05:55;;;;;;;7.40;6.70;;;17.00;58.80;;;;;;5011635;28;20547;-47
2021/09/19 06:08:21;;;;;;;7.47;6.77;;;17.00;58.80;;;;;;5001944;28;20268;-49
2021/09/19 06:10:47;;;;;;;7.17;6.47;;;17.10;59.00;;;;;;4991861;28;20190;-49
2021/09/19 06:13:12;;;;;;;8.27;7.23;;;17.20;59.20;;;;;;4991379;28;20678;-49
2021/09/19 06:15:38;;;;;;;8.43;7.07;;;17.20;59.20;;;;;;4991842;28;20199;-52
2021/09/19 06:18:04;;;;;;;7.70;7.10;;;17.30;59.30;;;;;;4991122;28;21026;-47
2021/09/19 06:20:30;;;;;;;8.27;7.07;;;17.40;59.40;;;;;;4991518;28;20480;-48
2021/09/19 06:22:55;;;;;;;7.47;6.60;;;17.40;60.20;;;;;;4991672;28;20693;-48
2021/09/19 06:25:21;;;;;;;6.77;6.17;;;17.50;60.40;;;;;;4991987;28;20220;-49
2021/09/19 06:27:47;;;;;;;8.23;7.40;;;17.70;60.20;;;;;;4989558;28;20209;-47
2021/09/19 06:30:13;;;;;;;8.50;7.70;;;17.80;60.10;;;;;;4991530;28;20195;-48
2021/09/19 06:32:39;;;;;;;8.37;7.63;;;17.80;59.70;;;;;;4991860;28;20566;-46
2021/09/19 06:35:05;;;;;;;7.90;7.20;;;17.80;60.00;;;;;;4991114;28;20429;-46
2021/09/19 06:37:31;;;;;;;11.13;7.37;;;17.90;60.10;;;;;;4991670;28;20187;-46
2021/09/19 06:39:56;;;;;;;7.37;6.67;;;18.20;59.80;;;;;;4994228;28;20437;-47
2021/09/19 06:42:22;;;;;;;6.67;6.07;;;18.30;59.50;;;;;;4995082;28;20229;-47
2021/09/19 06:44:49;;;;;;;7.97;7.17;;;18.50;59.00;;;;;;4994891;28;20195;-47
2021/09/19 06:47:15;;;;;;;6.83;6.23;;;18.70;58.80;;;;;;4995423;28;20198;-48
2021/09/19 06:49:41;;;;;;;6.80;5.80;;;19.00;58.60;;;;;;4995394;28;20476;-46
2021/09/19 06:52:07;;;;;;;8.50;6.37;;;19.10;58.20;;;;;;5014105;28;20944;-47
2021/09/19 06:54:32;;;;;;;7.33;6.33;;;19.30;58.00;;;;;;5012468;28;20269;-47
2021/09/19 06:56:58;;;;;;;6.07;5.57;;;19.50;57.60;;;;;;5006151;28;20186;-48
2021/09/19 06:59:23;;;;;;;6.93;6.33;;;19.50;57.40;;;;;;4997016;28;20237;-48
2021/09/19 07:01:49;;;;;;;6.30;5.80;;;19.70;57.40;;;;;;5014291;28;20222;-46
2021/09/19 07:04:14;;;;;;;7.27;6.57;;;19.90;56.90;;;;;;5013798;28;20638;-46
2021/09/19 07:06:40;;;;;;;6.77;5.13;;;20.20;56.60;;;;;;5014480;28;20304;-47
2021/09/19 07:09:06;;;;;;;6.57;6.03;;;20.40;56.20;;;;;;4998616;28;20222;-47
2021/09/19 07:11:32;;;;;;;5.77;5.37;;;20.50;55.50;;;;;;4994356;28;20647;-46
2021/09/19 07:13:57;;;;;;;5.97;5.37;;;20.70;55.20;;;;;;4994325;28;20194;-47
2021/09/19 07:16:23;;;;;;;6.27;5.67;;;21.00;54.80;;;;;;4994973;28;20197;-46
2021/09/19 07:18:49;;;;;;;6.10;5.60;;;21.10;54.30;;;;;;4993856;28;20270;-50
2021/09/19 07:21:15;;;;;;;5.60;5.20;;;21.20;54.00;;;;;;4992885;28;20227;-49
2021/09/19 07:23:40;;;;;;;5.63;5.13;;;21.30;53.70;;;;;;4994046;28;20199;-47
2021/09/19 07:26:06;;;;;;;5.67;5.10;;;21.40;53.70;;;;;;4994659;28;20190;-48
2021/09/19 07:28:32;;;;;;;6.30;5.37;;;21.50;53.50;;;;;;4993965;28;20222;-47
2021/09/19 07:30:58;;;;;;;5.23;4.83;;;21.50;52.80;;;;;;4994395;28;20201;-47
2021/09/19 07:33:25;;;;;;;6.83;4.90;;;21.50;53.30;;;;;;4994040;28;20437;-46
2021/09/19 07:35:51;;;;;;;5.33;4.90;;;21.50;53.50;;;;;;4994690;28;20205;-46
2021/09/19 07:38:18;;;;;;;5.80;5.40;;;21.70;52.90;;;;;;4994005;28;20437;-47
2021/09/19 07:40:45;;;;;;;5.53;5.13;;;21.90;52.60;;;;;;4993695;28;20566;-46
2021/09/19 07:43:11;;;;;;;5.97;5.50;;;22.10;52.40;;;;;;4993583;28;20512;-48
2021/09/19 07:45:37;;;;;;;5.57;5.07;;;22.20;52.10;;;;;;4992405;28;20529;-46
2021/09/19 07:48:09;;;;;;;4.80;4.43;;;22.10;52.20;;;;;;4993722;28;20207;-48
2021/09/19 07:50:36;;;;;;;5.30;4.90;;;22.10;52.50;;;;;;5000697;28;20200;-47
2021/09/19 07:53:02;;;;;;;5.47;4.63;;;22.20;52.50;;;;;;5013514;28;20448;-47
2021/09/19 07:55:28;;;;;;;4.63;4.30;;;22.30;52.30;;;;;;5013798;28;20913;-47
2021/09/19 07:57:54;;;;;;;5.63;5.23;;;22.50;52.20;;;;;;4996563;28;20301;-48
2021/09/19 08:00:20;;;;;;;5.20;4.70;;;22.60;52.40;;;;;;5003260;28;20429;-46
2021/09/19 08:02:46;;;;;;;5.37;4.97;;;22.70;52.00;;;;;;5012946;28;20432;-46
2021/09/19 08:05:12;;;;;;;5.57;4.80;;;22.80;51.30;;;;;;5013383;28;20555;-46
2021/09/19 08:07:38;;;;;;;5.20;4.80;;;22.90;51.30;;;;;;5009641;28;20898;-48
2021/09/19 08:10:05;;;;;;;5.37;4.97;;;22.90;51.50;;;;;;4992731;28;20477;-46
2021/09/19 08:12:31;;;;;;;6.37;4.83;;;22.80;51.30;;;;;;4991955;28;20196;-48
2021/09/19 08:14:56;;;;;;;5.53;5.13;;;22.80;51.00;;;;;;4993258;28;21028;-47
2021/09/19 08:17:22;;;;;;;5.70;5.30;;;22.90;51.30;;;;;;4993488;28;20277;-48
2021/09/19 08:19:47;;;;;;;5.03;4.63;;;22.80;51.00;;;;;;4992871;28;20643;-48
2021/09/19 08:22:13;;;;;;;5.00;4.60;;;22.70;51.20;;;;;;4992954;28;20347;-46
2021/09/19 08:24:39;;;;;;;4.63;4.33;;;22.80;51.20;;;;;;4992882;28;20632;-46
2021/09/19 08:27:06;;;;;;;6.70;3.93;;;22.60;51.10;;;;;;4993503;28;20689;-49
2021/09/19 08:29:32;;;;;;;6.30;4.80;;;22.70;50.90;;;;;;4992909;28;20559;-48
2021/09/19 08:31:57;;;;;;;5.00;4.60;;;22.80;51.10;;;;;;4993159;28;20421;-47
2021/09/19 08:34:23;;;;;;;4.60;4.20;;;23.00;51.10;;;;;;4992865;28;20268;-47
2021/09/19 08:36:49;;;;;;;4.80;4.40;;;23.10;50.90;;;;;;4993308;28;20200;-47
2021/09/19 08:39:14;;;;;;;4.27;3.87;;;23.10;50.60;;;;;;4990958;28;20190;-46
2021/09/19 08:41:40;;;;;;;4.77;4.47;;;23.10;51.10;;;;;;4992458;28;20234;-47
2021/09/19 08:44:06;;;;;;;5.40;4.20;;;23.20;51.50;;;;;;4992858;28;20220;-47
2021/09/19 08:46:32;;;;;;;4.70;4.37;;;23.40;50.90;;;;;;4993027;28;20910;-46
2021/09/19 08:48:57;;;;;;;4.50;4.10;;;23.50;49.80;;;;;;4992640;28;20210;-46
2021/09/19 08:51:23;;;;;;;4.00;3.70;;;23.70;49.70;;;;;;5007102;28;20198;-47
2021/09/19 08:53:49;;;;;;;3.80;3.50;;;23.70;49.80;;;;;;5011904;28;20276;-48
2021/09/19 08:56:25;;;;;;;4.53;3.90;;;23.80;49.00;;;;;;5009000;28;20196;-46
2021/09/19 08:58:52;;;;;;;4.97;3.80;;;23.90;49.20;;;;;;4992410;28;20473;-47
2021/09/19 09:01:18;;;;;;;5.00;3.57;;;23.90;49.00;;;;;;5009649;28;20488;-47
2021/09/19 09:03:44;;;;;;;4.17;3.87;;;24.00;49.50;;;;;;5011301;28;20429;-46
2021/09/19 09:06:10;;;;;;;3.83;3.53;;;24.20;49.60;;;;;;5010400;28;20556;-49
2021/09/19 09:08:36;;;;;;;4.37;3.97;;;24.30;49.70;;;;;;5000611;28;20225;-46
2021/09/19 09:11:05;;;;;;;3.40;3.20;;;24.50;48.90;;;;;;4992509;28;20428;-46
2021/09/19 09:13:36;;;;;;;3.60;3.40;;;24.60;48.20;;;;;;4991959;28;20206;-49
2021/09/19 09:16:12;;;;;;;3.37;3.13;;;24.80;48.30;;;;;;4992523;28;20914;-46
2021/09/19 09:18:39;;;;;;;4.63;4.23;;;24.90;48.20;;;;;;4992296;28;20436;-49
2021/09/19 09:21:14;;;;;;;3.60;3.40;;;25.00;47.80;;;;;;4992075;28;20520;-47
2021/09/19 09:24:00;;;;;;;3.17;2.97;;;25.00;47.50;;;;;;4991926;28;20506;-47
2021/09/19 09:26:30;;;;;;;3.53;3.23;;;25.10;47.30;;;;;;4992660;28;20441;-48
2021/09/19 09:29:01;;;;;;;4.30;3.80;;;25.10;46.70;;;;;;4992036;28;20438;-47
2021/09/19 09:31:34;;;;;;;4.07;3.67;;;25.30;47.20;;;;;;4990391;28;20828;-50
2021/09/19 09:34:01;;;;;;;3.70;3.40;;;25.40;48.00;;;;;;4998956;28;20449;-49
2021/09/19 09:36:34;;;;;;;3.87;3.57;;;25.70;48.20;;;;;;5012281;28;20904;-48
2021/09/19 09:39:01;;;;;;;3.27;3.07;;;25.90;46.20;;;;;;5011546;28;20432;-49
2021/09/19 09:41:40;;;;;;;3.73;3.43;;;26.00;46.20;;;;;;5011401;28;20488;-47
2021/09/19 09:44:26;;;;;;;4.07;3.67;;;26.10;47.20;;;;;;5011260;28;20889;-46
2021/09/19 09:46:51;;;;;;;3.27;2.90;;;26.20;45.60;;;;;;5012181;28;20789;-47
2021/09/19 09:49:22;;;;;;;3.30;3.10;;;26.40;47.30;;;;;;5011003;28;20436;-47
2021/09/19 09:51:47;;;;;;;3.30;3.10;;;26.70;45.90;;;;;;5011530;28;20197;-47
2021/09/19 09:54:15;;;;;;;3.67;3.47;;;26.80;45.50;;;;;;5011090;28;20436;-47
2021/09/19 09:56:44;;;;;;;4.17;3.87;;;26.90;45.00;;;;;;5004363;28;20198;-47
2021/09/19 09:59:11;;;;;;;3.67;3.37;;;26.90;44.60;;;;;;4989998;28;20493;-47
2021/09/19 10:01:39;;;;;;;3.20;3.00;;;26.90;43.90;;;;;;5011110;28;20539;-48
2021/09/19 10:04:05;;;;;;;3.73;3.43;;;27.10;43.40;;;;;;5011168;28;20424;-46
2021/09/19 10:06:31;;;;;;;3.60;3.30;;;27.10;42.90;;;;;;5011652;28;20498;-50
2021/09/19 10:08:58;;;;;;;3.40;3.20;;;27.30;42.40;;;;;;4996922;28;20437;-47
2021/09/19 10:11:23;;;;;;;3.57;3.37;;;27.40;41.90;;;;;;4991500;28;20434;-47
2021/09/19 10:13:50;;;;;;;4.10;3.80;;;27.50;41.50;;;;;;4992806;28;20956;-46
2021/09/19 10:16:17;;;;;;;3.80;3.57;;;27.60;42.00;;;;;;4995858;28;20190;-47
2021/09/19 10:18:48;;;;;;;3.50;3.30;;;27.70;42.50;;;;;;4995193;28;20430;-46
2021/09/19 10:21:16;;;;;;;3.40;3.00;;;27.90;42.80;;;;;;4995407;28;20500;-47
2021/09/19 10:23:44;;;;;;;3.47;3.17;;;28.00;43.10;;;;;;4995077;28;20430;-47
2021/09/19 10:26:12;;;;;;;4.43;3.00;;;28.10;43.10;;;;;;4994224;28;20441;-46
2021/09/19 10:28:40;;;;;;;3.27;3.07;;;28.20;43.50;;;;;;4995280;28;20434;-49
2021/09/19 10:31:09;;;;;;;3.73;3.53;;;28.40;42.40;;;;;;4995437;28;20509;-47
2021/09/19 10:33:36;;;;;;;4.73;3.70;;;28.60;41.60;;;;;;4994881;28;20439;-48
2021/09/19 10:36:08;;;;;;;2.87;2.67;;;28.70;41.30;;;;;;4995613;28;20437;-46
2021/09/19 10:38:36;;;;;;;2.97;2.77;;;28.70;41.50;;;;;;4995068;28;20430;-47
2021/09/19 10:41:22;;;;;;;3.90;3.57;;;28.90;41.80;;;;;;4994891;28;20481;-47
2021/09/19 10:43:53;;;;;;;5.40;3.00;;;29.20;40.60;;;;;;5002877;28;20459;-48
2021/09/19 10:46:34;;;;;;;3.17;2.97;;;29.30;39.90;;;;;;5015080;28;21203;-47
2021/09/19 10:49:19;;;;;;;4.73;3.20;;;29.50;40.00;;;;;;5014577;28;20468;-50
2021/09/19 10:52:00;;;;;;;4.47;4.00;;;29.60;38.70;;;;;;5012680;28;20967;-48
2021/09/19 10:54:44;;;;;;;4.43;4.03;;;29.60;38.00;;;;;;5014346;28;20494;-46
2021/09/19 10:57:22;;;;;;;3.47;3.17;;;29.70;37.40;;;;;;5003056;28;20430;-52
2021/09/19 11:00:09;;;;;;;3.27;3.07;;;29.50;38.00;;;;;;5000698;28;20531;-53
2021/09/19 11:02:37;;;;;;;3.50;3.30;;;29.70;38.80;;;;;;5014595;28;20495;-50
2021/09/19 11:05:22;;;;;;;3.87;3.57;;;29.70;39.00;;;;;;5014064;28;20552;-52
2021/09/19 11:07:49;;;;;;;3.23;3.00;;;29.90;39.40;;;;;;5009227;28;20957;-48
2021/09/19 11:10:15;;;;;;;4.73;3.63;;;30.00;40.00;;;;;;4994808;28;20484;-50
2021/09/19 11:12:51;;;;;;;3.37;3.07;;;30.10;39.50;;;;;;4994950;28;20433;-48
2021/09/19 11:15:24;;;;;;;3.20;3.00;;;30.40;39.20;;;;;;4994896;28;20438;-52
2021/09/19 11:17:51;;;;;;;3.33;3.13;;;30.60;37.80;;;;;;4999736;28;20429;-48
2021/09/19 11:20:17;;;;;;;3.43;3.13;;;30.70;37.70;;;;;;5014044;28;20433;-47
2021/09/19 11:22:48;;;;;;;3.40;3.20;;;30.70;38.80;;;;;;5014153;28;20509;-47
2021/09/19 11:25:15;;;;;;;3.70;3.40;;;30.80;38.50;;;;;;5013110;28;20198;-48
2021/09/19 11:27:45;;;;;;;4.37;4.07;;;30.90;38.20;;;;;;5014521;28;20430;-47
2021/09/19 11:30:13;;;;;;;3.13;2.93;;;30.70;36.80;;;;;;5013630;28;20427;-46
2021/09/19 11:32:39;;;;;;;3.20;3.00;;;30.90;38.70;;;;;;5014261;28;20440;-48
2021/09/19 11:35:08;;;;;;;3.53;3.33;;;30.90;38.60;;;;;;5013504;28;20429;-48
2021/09/19 11:37:35;;;;;;;3.70;3.40;;;30.70;38.60;;;;;;5014117;28;20932;-47
2021/09/19 11:40:00;;;;;;;3.70;3.17;;;30.60;37.80;;;;;;5012923;28;20432;-52
2021/09/19 11:42:28;;;;;;;3.80;3.50;;;30.50;37.90;;;;;;5013729;28;20488;-47
2021/09/19 11:44:55;;;;;;;2.90;2.70;;;30.50;38.00;;;;;;5011785;28;20272;-47
2021/09/19 11:47:23;;;;;;;3.90;3.60;;;30.30;38.30;;;;;;5013952;28;20794;-49
2021/09/19 11:49:53;;;;;;;3.50;3.20;;;30.20;38.90;;;;;;5012601;28;20421;-48
2021/09/19 11:52:22;;;;;;;3.47;3.20;;;30.30;39.00;;;;;;5013370;28;20994;-47
2021/09/19 11:54:48;;;;;;;3.50;3.30;;;30.50;38.40;;;;;;5013054;28;20420;-48
2021/09/19 11:57:14;;;;;;;2.60;2.40;;;30.50;39.20;;;;;;5003626;28;20429;-48
2021/09/19 11:59:45;;;;;;;3.97;3.20;;;30.60;38.70;;;;;;4997202;28;20229;-49
2021/09/19 12:02:13;;;;;;;3.73;3.43;;;30.80;36.90;;;;;;5013633;28;20969;-51
2021/09/19 12:04:43;;;;;;;3.57;3.30;;;30.90;36.90;;;;;;5013001;28;20496;-53
2021/09/19 12:07:13;;;;;;;3.57;3.37;;;30.90;37.00;;;;;;5013431;28;20444;-53
2021/09/19 12:09:47;;;;;;;4.20;3.67;;;30.70;35.70;;;;;;4992642;28;20600;-48
2021/09/19 12:12:15;;;;;;;4.47;4.10;;;30.60;35.70;;;;;;4992086;28;20480;-49
2021/09/19 12:14:45;;;;;;;3.47;3.27;;;30.30;36.00;;;;;;4993193;28;20825;-52
2021/09/19 12:17:12;;;;;;;4.20;3.90;;;30.30;37.70;;;;;;4993421;28;20940;-48
2021/09/19 12:19:40;;;;;;;3.30;3.10;;;30.40;36.80;;;;;;4992710;28;20429;-52
2021/09/19 12:22:18;;;;;;;3.20;3.00;;;30.50;36.70;;;;;;4993696;28;20486;-52
2021/09/19 12:24:44;;;;;;;3.70;3.40;;;30.50;37.60;;;;;;4993552;28;20422;-53
2021/09/19 12:27:17;;;;;;;3.70;3.40;;;30.50;37.60;;;;;;4993604;28;20530;-51
2021/09/19 12:29:57;;;;;;;3.30;3.10;;;30.50;37.20;;;;;;4992302;28;20198;-53
2021/09/19 12:32:52;;;;;;;3.40;3.20;;;30.60;37.00;;;;;;4993427;28;20429;-52
2021/09/19 12:35:30;;;;;;;3.80;3.50;;;30.60;36.60;;;;;;4993384;28;20426;-49
2021/09/19 12:37:58;;;;;;;3.60;3.30;;;30.60;37.20;;;;;;4990966;28;20605;-52
2021/09/19 12:40:26;;;;;;;3.60;3.30;;;30.60;37.20;;;;;;4992643;28;20469;-51
2021/09/19 12:43:05;;;;;;;3.40;3.20;;;30.80;37.70;;;;;;4992639;28;20456;-52